sensor_id;sensor_type;location;lat;lon;timestamp;temperature;humidity
52867;DHT22;38739;53.324;6.862;2023-01-29T00:00:07;4.00;99.90
52867;DHT22;38739;53.324;6.862;2023-01-29T00:02:35;4.00;99.90
52867;DHT22;38739;53.324;6.862;2023-01-29T00:05:02;4.00;99.90
52867;DHT22;38739;53.324;6.862;2023-01-29T00:07:28;4.00;99.90
52867;DHT22;38739;53.324;6.862;2023-01-29T00:09:54;4.00;99.90
52867;DHT22;38739;53.324;6.862;2023-01-29T00:12:20;3.90;99.90
52867;DHT22;38739;53.324;6.862;2023-01-29T00:14:48;3.90;99.90
52867;DHT22;38739;53.324;6.862;2023-01-29T00:17:14;3.90;99.90
52867;DHT22;38739;53.324;6.862;2023-01-29T00:19:40;3.90;99.90
52867;DHT22;38739;53.324;6.862;2023-01-29T00:22:05;4.00;99.90
52867;DHT22;38739;53.324;6.862;2023-01-29T00:24:31;3.90;99.90
52867;DHT22;38739;53.324;6.862;2023-01-29T00:26:57;3.90;99.90
52867;DHT22;38739;53.324;6.862;2023-01-29T00:29:22;3.90;99.90
52867;DHT22;38739;53.324;6.862;2023-01-29T00:31:48;3.90;99.90
52867;DHT22;38739;53.324;6.862;2023-01-29T00:34:13;3.90;99.90
52867;DHT22;38739;53.324;6.862;2023-01-29T00:36:41;3.90;99.90
52867;DHT22;38739;53.324;6.862;2023-01-29T00:39:09;3.90;99.90
52867;DHT22;38739;53.324;6.862;2023-01-29T00:41:35;3.90;99.90
52867;DHT22;38739;53.324;6.862;2023-01-29T00:44:20;4.00;99.90
52867;DHT22;38739;53.324;6.862;2023-01-29T00:47:05;3.90;99.90
52867;DHT22;38739;53.324;6.862;2023-01-29T00:49:55;4.00;99.90
52867;DHT22;38739;53.324;6.862;2023-01-29T00:52:22;4.00;99.90
52867;DHT22;38739;53.324;6.862;2023-01-29T00:54:51;4.00;99.90
52867;DHT22;38739;53.324;6.862;2023-01-29T00:57:18;3.90;99.90
52867;DHT22;38739;53.324;6.862;2023-01-29T00:59:43;3.90;99.90
52867;DHT22;38739;53.324;6.862;2023-01-29T01:02:09;3.90;99.90
52867;DHT22;38739;53.324;6.862;2023-01-29T01:04:53;4.00;99.90
52867;DHT22;38739;53.324;6.862;2023-01-29T01:07:19;3.90;99.90
52867;DHT22;38739;53.324;6.862;2023-01-29T01:09:45;3.90;99.90
52867;DHT22;38739;53.324;6.862;2023-01-29T01:12:30;4.00;99.90
52867;DHT22;38739;53.324;6.862;2023-01-29T01:14:56;3.90;99.90
52867;DHT22;38739;53.324;6.862;2023-01-29T01:17:24;3.90;99.90
52867;DHT22;38739;53.324;6.862;2023-01-29T01:19:50;3.90;99.90
52867;DHT22;38739;53.324;6.862;2023-01-29T01:22:16;3.90;99.90
52867;DHT22;38739;53.324;6.862;2023-01-29T01:24:41;3.90;99.90
52867;DHT22;38739;53.324;6.862;2023-01-29T01:27:07;3.90;99.90
52867;DHT22;38739;53.324;6.862;2023-01-29T01:29:33;3.90;99.90
52867;DHT22;38739;53.324;6.862;2023-01-29T01:32:00;3.90;99.90
52867;DHT22;38739;53.324;6.862;2023-01-29T01:34:26;3.90;99.90
52867;DHT22;38739;53.324;6.862;2023-01-29T01:36:53;3.90;99.90
52867;DHT22;38739;53.324;6.862;2023-01-29T01:39:20;3.90;99.90
52867;DHT22;38739;53.324;6.862;2023-01-29T01:41:46;3.90;99.90
52867;DHT22;38739;53.324;6.862;2023-01-29T01:44:51;3.90;99.90
52867;DHT22;38739;53.324;6.862;2023-01-29T01:47:42;3.90;99.90
52867;DHT22;38739;53.324;6.862;2023-01-29T01:50:35;3.90;99.90
52867;DHT22;38739;53.324;6.862;2023-01-29T01:53:12;3.90;99.90
52867;DHT22;38739;53.324;6.862;2023-01-29T01:55:46;3.90;99.90
52867;DHT22;38739;53.324;6.862;2023-01-29T01:58:20;3.90;99.90
52867;DHT22;38739;53.324;6.862;2023-01-29T02:00:47;3.90;99.90
52867;DHT22;38739;53.324;6.862;2023-01-29T02:03:13;4.00;99.90
52867;DHT22;38739;53.324;6.862;2023-01-29T02:05:59;3.90;99.90
52867;DHT22;38739;53.324;6.862;2023-01-29T02:09:07;3.90;99.90
52867;DHT22;38739;53.324;6.862;2023-01-29T02:11:55;3.90;99.90
52867;DHT22;38739;53.324;6.862;2023-01-29T02:14:21;3.90;99.90
52867;DHT22;38739;53.324;6.862;2023-01-29T02:16:47;4.00;99.90
52867;DHT22;38739;53.324;6.862;2023-01-29T02:28:05;3.90;99.90
52867;DHT22;38739;53.324;6.862;2023-01-29T02:30:37;3.90;99.90
52867;DHT22;38739;53.324;6.862;2023-01-29T02:33:13;3.90;99.90
52867;DHT22;38739;53.324;6.862;2023-01-29T02:35:58;3.90;99.90
52867;DHT22;38739;53.324;6.862;2023-01-29T02:41:31;3.90;99.90
52867;DHT22;38739;53.324;6.862;2023-01-29T02:46:55;3.90;99.90
52867;DHT22;38739;53.324;6.862;2023-01-29T02:49:34;3.90;99.90
52867;DHT22;38739;53.324;6.862;2023-01-29T02:52:09;3.90;99.90
52867;DHT22;38739;53.324;6.862;2023-01-29T02:54:50;3.90;99.90
52867;DHT22;38739;53.324;6.862;2023-01-29T02:57:23;3.90;99.90
52867;DHT22;38739;53.324;6.862;2023-01-29T02:59:58;3.90;99.90
52867;DHT22;38739;53.324;6.862;2023-01-29T03:02:53;3.90;99.90
52867;DHT22;38739;53.324;6.862;2023-01-29T03:05:28;3.90;99.90
52867;DHT22;38739;53.324;6.862;2023-01-29T03:08:00;3.90;99.90
52867;DHT22;38739;53.324;6.862;2023-01-29T03:10:39;3.90;99.90
52867;DHT22;38739;53.324;6.862;2023-01-29T03:13:15;3.90;99.90
52867;DHT22;38739;53.324;6.862;2023-01-29T03:15:46;3.90;99.90
52867;DHT22;38739;53.324;6.862;2023-01-29T03:18:21;3.80;99.90
52867;DHT22;38739;53.324;6.862;2023-01-29T03:20:56;3.80;99.90
52867;DHT22;38739;53.324;6.862;2023-01-29T03:23:26;3.90;99.90
52867;DHT22;38739;53.324;6.862;2023-01-29T03:26:13;3.90;99.90
52867;DHT22;38739;53.324;6.862;2023-01-29T03:28:59;3.90;99.90
52867;DHT22;38739;53.324;6.862;2023-01-29T03:31:44;3.90;99.90
52867;DHT22;38739;53.324;6.862;2023-01-29T03:34:39;3.90;99.90
52867;DHT22;38739;53.324;6.862;2023-01-29T03:39:41;3.90;99.90
52867;DHT22;38739;53.324;6.862;2023-01-29T03:48:03;3.90;99.90
52867;DHT22;38739;53.324;6.862;2023-01-29T03:50:38;3.90;99.90
52867;DHT22;38739;53.324;6.862;2023-01-29T03:56:00;4.00;99.90
52867;DHT22;38739;53.324;6.862;2023-01-29T03:58:42;3.90;99.90
52867;DHT22;38739;53.324;6.862;2023-01-29T04:01:24;3.90;99.90
52867;DHT22;38739;53.324;6.862;2023-01-29T04:04:05;3.90;99.90
52867;DHT22;38739;53.324;6.862;2023-01-29T04:06:36;3.90;99.90
52867;DHT22;38739;53.324;6.862;2023-01-29T04:12:10;3.90;99.90
52867;DHT22;38739;53.324;6.862;2023-01-29T04:14:37;3.90;99.90
52867;DHT22;38739;53.324;6.862;2023-01-29T04:17:42;3.90;99.90
52867;DHT22;38739;53.324;6.862;2023-01-29T04:20:13;3.90;99.90
52867;DHT22;38739;53.324;6.862;2023-01-29T04:22:39;3.90;99.90
52867;DHT22;38739;53.324;6.862;2023-01-29T04:25:36;3.90;99.90
52867;DHT22;38739;53.324;6.862;2023-01-29T04:28:22;3.90;99.90
52867;DHT22;38739;53.324;6.862;2023-01-29T04:30:59;3.90;99.90
52867;DHT22;38739;53.324;6.862;2023-01-29T04:41:25;4.00;99.90
52867;DHT22;38739;53.324;6.862;2023-01-29T04:46:47;4.00;99.90
52867;DHT22;38739;53.324;6.862;2023-01-29T04:51:50;4.00;99.90
52867;DHT22;38739;53.324;6.862;2023-01-29T04:57:32;4.00;99.90
52867;DHT22;38739;53.324;6.862;2023-01-29T05:00:20;3.90;99.90
52867;DHT22;38739;53.324;6.862;2023-01-29T05:02:47;4.00;99.90
52867;DHT22;38739;53.324;6.862;2023-01-29T05:05:15;3.90;99.90
52867;DHT22;38739;53.324;6.862;2023-01-29T05:07:43;4.00;99.90
52867;DHT22;38739;53.324;6.862;2023-01-29T05:10:10;4.00;99.90
52867;DHT22;38739;53.324;6.862;2023-01-29T05:12:37;3.90;99.90
52867;DHT22;38739;53.324;6.862;2023-01-29T05:15:08;3.90;99.90
52867;DHT22;38739;53.324;6.862;2023-01-29T05:17:37;3.90;99.90
52867;DHT22;38739;53.324;6.862;2023-01-29T05:20:03;3.90;99.90
52867;DHT22;38739;53.324;6.862;2023-01-29T05:22:29;3.90;99.90
52867;DHT22;38739;53.324;6.862;2023-01-29T05:24:58;4.00;99.90
52867;DHT22;38739;53.324;6.862;2023-01-29T05:27:31;3.90;99.90
52867;DHT22;38739;53.324;6.862;2023-01-29T05:30:17;3.90;99.90
52867;DHT22;38739;53.324;6.862;2023-01-29T05:32:43;3.90;99.90
52867;DHT22;38739;53.324;6.862;2023-01-29T05:35:09;3.90;99.90
52867;DHT22;38739;53.324;6.862;2023-01-29T05:37:34;3.90;99.90
52867;DHT22;38739;53.324;6.862;2023-01-29T05:40:06;3.90;99.90
52867;DHT22;38739;53.324;6.862;2023-01-29T05:42:33;3.90;99.90
52867;DHT22;38739;53.324;6.862;2023-01-29T05:44:58;3.90;99.90
52867;DHT22;38739;53.324;6.862;2023-01-29T05:47:24;3.90;99.90
52867;DHT22;38739;53.324;6.862;2023-01-29T05:49:50;3.90;99.90
52867;DHT22;38739;53.324;6.862;2023-01-29T05:52:15;3.90;99.90
52867;DHT22;38739;53.324;6.862;2023-01-29T05:54:44;3.90;99.90
52867;DHT22;38739;53.324;6.862;2023-01-29T05:57:09;3.90;99.90
52867;DHT22;38739;53.324;6.862;2023-01-29T05:59:35;3.90;99.90
52867;DHT22;38739;53.324;6.862;2023-01-29T06:02:01;3.90;99.90
52867;DHT22;38739;53.324;6.862;2023-01-29T06:04:27;3.90;99.90
52867;DHT22;38739;53.324;6.862;2023-01-29T06:06:52;3.90;99.90
52867;DHT22;38739;53.324;6.862;2023-01-29T06:09:21;3.90;99.90
52867;DHT22;38739;53.324;6.862;2023-01-29T06:11:46;3.90;99.90
52867;DHT22;38739;53.324;6.862;2023-01-29T06:14:12;3.90;99.90
52867;DHT22;38739;53.324;6.862;2023-01-29T06:16:38;3.90;99.90
52867;DHT22;38739;53.324;6.862;2023-01-29T06:19:06;3.90;99.90
52867;DHT22;38739;53.324;6.862;2023-01-29T06:21:32;3.90;99.90
52867;DHT22;38739;53.324;6.862;2023-01-29T06:23:58;3.90;99.90
52867;DHT22;38739;53.324;6.862;2023-01-29T06:26:23;3.90;99.90
52867;DHT22;38739;53.324;6.862;2023-01-29T06:28:49;3.90;99.90
52867;DHT22;38739;53.324;6.862;2023-01-29T06:31:15;3.90;99.90
52867;DHT22;38739;53.324;6.862;2023-01-29T06:33:41;3.90;99.90
52867;DHT22;38739;53.324;6.862;2023-01-29T06:36:07;3.80;99.90
52867;DHT22;38739;53.324;6.862;2023-01-29T06:38:32;3.90;99.90
52867;DHT22;38739;53.324;6.862;2023-01-29T06:40:58;3.90;99.90
52867;DHT22;38739;53.324;6.862;2023-01-29T06:43:24;3.90;99.90
52867;DHT22;38739;53.324;6.862;2023-01-29T06:45:52;3.90;99.90
52867;DHT22;38739;53.324;6.862;2023-01-29T06:48:19;3.80;99.90
52867;DHT22;38739;53.324;6.862;2023-01-29T06:50:45;3.90;99.90
52867;DHT22;38739;53.324;6.862;2023-01-29T06:53:11;3.90;99.90
52867;DHT22;38739;53.324;6.862;2023-01-29T06:55:37;3.90;99.90
52867;DHT22;38739;53.324;6.862;2023-01-29T06:58:07;3.90;99.90
52867;DHT22;38739;53.324;6.862;2023-01-29T07:00:33;3.90;99.90
52867;DHT22;38739;53.324;6.862;2023-01-29T07:03:02;3.90;99.90
52867;DHT22;38739;53.324;6.862;2023-01-29T07:05:28;3.90;99.90
52867;DHT22;38739;53.324;6.862;2023-01-29T07:07:54;3.90;99.90
52867;DHT22;38739;53.324;6.862;2023-01-29T07:10:19;3.90;99.90
52867;DHT22;38739;53.324;6.862;2023-01-29T07:12:45;3.90;99.90
52867;DHT22;38739;53.324;6.862;2023-01-29T07:15:11;3.90;99.90
52867;DHT22;38739;53.324;6.862;2023-01-29T07:17:37;3.90;99.90
52867;DHT22;38739;53.324;6.862;2023-01-29T07:20:04;4.00;99.90
52867;DHT22;38739;53.324;6.862;2023-01-29T07:22:34;4.00;99.90
52867;DHT22;38739;53.324;6.862;2023-01-29T07:24:59;4.00;99.90
52867;DHT22;38739;53.324;6.862;2023-01-29T07:27:25;4.00;99.90
52867;DHT22;38739;53.324;6.862;2023-01-29T07:29:51;4.00;99.90
52867;DHT22;38739;53.324;6.862;2023-01-29T07:32:17;4.00;99.90
52867;DHT22;38739;53.324;6.862;2023-01-29T07:34:43;4.00;99.90
52867;DHT22;38739;53.324;6.862;2023-01-29T07:37:08;4.00;99.90
52867;DHT22;38739;53.324;6.862;2023-01-29T07:39:34;4.00;99.90
52867;DHT22;38739;53.324;6.862;2023-01-29T07:42:00;4.00;99.90
52867;DHT22;38739;53.324;6.862;2023-01-29T07:44:26;4.00;99.90
52867;DHT22;38739;53.324;6.862;2023-01-29T07:46:52;4.00;99.90
52867;DHT22;38739;53.324;6.862;2023-01-29T07:49:18;4.00;99.90
52867;DHT22;38739;53.324;6.862;2023-01-29T07:51:43;4.00;99.90
52867;DHT22;38739;53.324;6.862;2023-01-29T07:54:09;4.10;99.90
52867;DHT22;38739;53.324;6.862;2023-01-29T07:56:35;4.10;99.90
52867;DHT22;38739;53.324;6.862;2023-01-29T07:59:00;4.10;99.90
52867;DHT22;38739;53.324;6.862;2023-01-29T08:01:26;4.10;99.90
52867;DHT22;38739;53.324;6.862;2023-01-29T08:03:51;4.10;99.90
52867;DHT22;38739;53.324;6.862;2023-01-29T08:06:17;4.10;99.90
52867;DHT22;38739;53.324;6.862;2023-01-29T08:08:43;4.10;99.90
52867;DHT22;38739;53.324;6.862;2023-01-29T08:11:09;4.10;99.90
52867;DHT22;38739;53.324;6.862;2023-01-29T08:13:35;4.10;99.90
52867;DHT22;38739;53.324;6.862;2023-01-29T08:16:01;4.10;99.90
52867;DHT22;38739;53.324;6.862;2023-01-29T08:18:27;4.10;99.90
52867;DHT22;38739;53.324;6.862;2023-01-29T08:20:58;4.20;99.90
52867;DHT22;38739;53.324;6.862;2023-01-29T08:23:24;4.20;99.90
52867;DHT22;38739;53.324;6.862;2023-01-29T08:25:49;4.20;99.90
52867;DHT22;38739;53.324;6.862;2023-01-29T08:28:18;4.20;99.90
52867;DHT22;38739;53.324;6.862;2023-01-29T08:30:50;4.20;99.90
52867;DHT22;38739;53.324;6.862;2023-01-29T08:33:16;4.20;99.90
52867;DHT22;38739;53.324;6.862;2023-01-29T08:35:42;4.20;99.90
52867;DHT22;38739;53.324;6.862;2023-01-29T08:38:08;4.20;99.90
52867;DHT22;38739;53.324;6.862;2023-01-29T08:40:37;4.30;99.90
52867;DHT22;38739;53.324;6.862;2023-01-29T08:43:05;4.30;99.90
52867;DHT22;38739;53.324;6.862;2023-01-29T08:45:33;4.30;99.90
52867;DHT22;38739;53.324;6.862;2023-01-29T08:47:59;4.30;99.90
52867;DHT22;38739;53.324;6.862;2023-01-29T08:50:27;4.30;99.90
52867;DHT22;38739;53.324;6.862;2023-01-29T08:52:58;4.30;99.90
52867;DHT22;38739;53.324;6.862;2023-01-29T08:55:25;4.30;99.90
52867;DHT22;38739;53.324;6.862;2023-01-29T08:57:50;4.30;99.90
52867;DHT22;38739;53.324;6.862;2023-01-29T09:00:17;4.30;99.90
52867;DHT22;38739;53.324;6.862;2023-01-29T09:02:42;4.30;99.90
52867;DHT22;38739;53.324;6.862;2023-01-29T09:05:10;4.30;99.90
52867;DHT22;38739;53.324;6.862;2023-01-29T09:07:36;4.30;99.90
52867;DHT22;38739;53.324;6.862;2023-01-29T09:10:05;4.30;99.90
52867;DHT22;38739;53.324;6.862;2023-01-29T09:12:31;4.30;99.90
52867;DHT22;38739;53.324;6.862;2023-01-29T09:14:57;4.30;99.90
52867;DHT22;38739;53.324;6.862;2023-01-29T09:17:22;4.40;99.90
52867;DHT22;38739;53.324;6.862;2023-01-29T09:19:48;4.40;99.90
52867;DHT22;38739;53.324;6.862;2023-01-29T09:22:14;4.40;99.90
52867;DHT22;38739;53.324;6.862;2023-01-29T09:24:39;4.40;99.90
52867;DHT22;38739;53.324;6.862;2023-01-29T09:27:08;4.50;99.90
52867;DHT22;38739;53.324;6.862;2023-01-29T09:29:34;4.50;99.90
52867;DHT22;38739;53.324;6.862;2023-01-29T09:32:03;4.50;99.90
52867;DHT22;38739;53.324;6.862;2023-01-29T09:34:29;4.50;99.90
52867;DHT22;38739;53.324;6.862;2023-01-29T09:36:54;4.50;99.90
52867;DHT22;38739;53.324;6.862;2023-01-29T09:39:20;4.50;99.90
52867;DHT22;38739;53.324;6.862;2023-01-29T09:45:05;4.50;99.90
52867;DHT22;38739;53.324;6.862;2023-01-29T09:47:33;4.50;99.90
52867;DHT22;38739;53.324;6.862;2023-01-29T09:56:26;4.60;99.90
52867;DHT22;38739;53.324;6.862;2023-01-29T09:58:56;4.60;99.90
52867;DHT22;38739;53.324;6.862;2023-01-29T10:01:48;4.60;99.90
52867;DHT22;38739;53.324;6.862;2023-01-29T10:07:11;4.60;99.90
52867;DHT22;38739;53.324;6.862;2023-01-29T10:09:55;4.60;99.90
52867;DHT22;38739;53.324;6.862;2023-01-29T10:12:38;4.60;99.90
52867;DHT22;38739;53.324;6.862;2023-01-29T10:23:52;4.70;99.90
52867;DHT22;38739;53.324;6.862;2023-01-29T10:26:23;4.70;99.90
52867;DHT22;38739;53.324;6.862;2023-01-29T10:28:51;4.70;99.90
52867;DHT22;38739;53.324;6.862;2023-01-29T10:34:00;4.80;99.90
52867;DHT22;38739;53.324;6.862;2023-01-29T10:36:40;4.80;99.90
52867;DHT22;38739;53.324;6.862;2023-01-29T10:44:38;4.90;99.90
52867;DHT22;38739;53.324;6.862;2023-01-29T10:59:03;5.00;99.90
52867;DHT22;38739;53.324;6.862;2023-01-29T11:01:32;5.00;99.90
52867;DHT22;38739;53.324;6.862;2023-01-29T11:04:03;5.00;99.90
52867;DHT22;38739;53.324;6.862;2023-01-29T11:06:35;5.10;99.90
52867;DHT22;38739;53.324;6.862;2023-01-29T11:15:15;5.00;99.90
52867;DHT22;38739;53.324;6.862;2023-01-29T11:17:24;5.00;99.90
52867;DHT22;38739;53.324;6.862;2023-01-29T11:19:54;5.00;99.90
52867;DHT22;38739;53.324;6.862;2023-01-29T11:22:30;5.00;99.90
52867;DHT22;38739;53.324;6.862;2023-01-29T11:25:08;5.00;99.90
52867;DHT22;38739;53.324;6.862;2023-01-29T11:27:47;5.00;99.90
52867;DHT22;38739;53.324;6.862;2023-01-29T11:32:43;5.00;99.90
52867;DHT22;38739;53.324;6.862;2023-01-29T11:37:43;5.00;99.90
52867;DHT22;38739;53.324;6.862;2023-01-29T11:42:47;5.00;99.90
52867;DHT22;38739;53.324;6.862;2023-01-29T11:45:24;5.00;99.90
52867;DHT22;38739;53.324;6.862;2023-01-29T11:47:54;5.00;99.90
52867;DHT22;38739;53.324;6.862;2023-01-29T11:50:52;5.00;99.90
52867;DHT22;38739;53.324;6.862;2023-01-29T11:53:41;5.00;99.90
52867;DHT22;38739;53.324;6.862;2023-01-29T11:56:29;5.00;99.90
52867;DHT22;38739;53.324;6.862;2023-01-29T11:58:57;5.10;99.90
52867;DHT22;38739;53.324;6.862;2023-01-29T12:01:31;5.10;99.90
52867;DHT22;38739;53.324;6.862;2023-01-29T12:03:57;5.10;99.90
52867;DHT22;38739;53.324;6.862;2023-01-29T12:06:35;5.20;99.90
52867;DHT22;38739;53.324;6.862;2023-01-29T12:09:08;5.20;99.90
52867;DHT22;38739;53.324;6.862;2023-01-29T12:11:34;5.30;99.90
52867;DHT22;38739;53.324;6.862;2023-01-29T12:14:05;5.30;99.90
52867;DHT22;38739;53.324;6.862;2023-01-29T12:19:37;5.30;99.90
52867;DHT22;38739;53.324;6.862;2023-01-29T12:24:57;5.40;99.90
52867;DHT22;38739;53.324;6.862;2023-01-29T12:27:45;5.30;99.90
52867;DHT22;38739;53.324;6.862;2023-01-29T12:30:22;5.30;99.90
52867;DHT22;38739;53.324;6.862;2023-01-29T12:35:49;5.30;99.90
52867;DHT22;38739;53.324;6.862;2023-01-29T12:38:19;5.30;99.90
52867;DHT22;38739;53.324;6.862;2023-01-29T12:40:46;5.30;99.90
52867;DHT22;38739;53.324;6.862;2023-01-29T12:43:18;5.30;99.90
52867;DHT22;38739;53.324;6.862;2023-01-29T12:45:50;5.30;99.90
52867;DHT22;38739;53.324;6.862;2023-01-29T12:48:27;5.20;99.90
52867;DHT22;38739;53.324;6.862;2023-01-29T12:50:58;5.30;99.90
52867;DHT22;38739;53.324;6.862;2023-01-29T12:53:36;5.20;99.90
52867;DHT22;38739;53.324;6.862;2023-01-29T12:56:14;5.20;99.90
52867;DHT22;38739;53.324;6.862;2023-01-29T12:58:47;5.20;99.90
52867;DHT22;38739;53.324;6.862;2023-01-29T13:01:19;5.20;99.90
52867;DHT22;38739;53.324;6.862;2023-01-29T13:04:01;5.20;99.90
52867;DHT22;38739;53.324;6.862;2023-01-29T13:06:32;5.20;99.90
52867;DHT22;38739;53.324;6.862;2023-01-29T13:09:10;5.20;99.90
52867;DHT22;38739;53.324;6.862;2023-01-29T13:11:50;5.20;99.90
52867;DHT22;38739;53.324;6.862;2023-01-29T13:17:23;5.20;99.90
52867;DHT22;38739;53.324;6.862;2023-01-29T13:19:56;5.20;99.90
52867;DHT22;38739;53.324;6.862;2023-01-29T13:22:25;5.20;99.90
52867;DHT22;38739;53.324;6.862;2023-01-29T13:24:59;5.20;99.90
52867;DHT22;38739;53.324;6.862;2023-01-29T13:27:30;5.20;99.90
52867;DHT22;38739;53.324;6.862;2023-01-29T13:29:59;5.30;99.90
52867;DHT22;38739;53.324;6.862;2023-01-29T13:32:27;5.20;99.90
52867;DHT22;38739;53.324;6.862;2023-01-29T13:35:06;5.30;99.90
52867;DHT22;38739;53.324;6.862;2023-01-29T13:37:41;5.20;99.90
52867;DHT22;38739;53.324;6.862;2023-01-29T13:40:28;5.20;99.90
52867;DHT22;38739;53.324;6.862;2023-01-29T13:42:56;5.20;99.90
52867;DHT22;38739;53.324;6.862;2023-01-29T13:45:41;5.20;99.90
52867;DHT22;38739;53.324;6.862;2023-01-29T13:48:28;5.20;99.90
52867;DHT22;38739;53.324;6.862;2023-01-29T13:51:00;5.20;99.90
52867;DHT22;38739;53.324;6.862;2023-01-29T13:53:39;5.20;99.90
52867;DHT22;38739;53.324;6.862;2023-01-29T13:58:54;5.20;99.90
52867;DHT22;38739;53.324;6.862;2023-01-29T14:04:22;5.20;99.90
52867;DHT22;38739;53.324;6.862;2023-01-29T14:07:00;5.20;99.90
52867;DHT22;38739;53.324;6.862;2023-01-29T14:15:13;5.20;99.90
52867;DHT22;38739;53.324;6.862;2023-01-29T14:20:41;5.30;99.90
52867;DHT22;38739;53.324;6.862;2023-01-29T14:23:43;5.20;99.90
52867;DHT22;38739;53.324;6.862;2023-01-29T14:29:23;5.30;99.90
52867;DHT22;38739;53.324;6.862;2023-01-29T14:31:59;5.30;99.90
52867;DHT22;38739;53.324;6.862;2023-01-29T14:35:04;5.20;99.90
52867;DHT22;38739;53.324;6.862;2023-01-29T14:37:38;5.20;99.90
52867;DHT22;38739;53.324;6.862;2023-01-29T14:45:25;5.10;99.90
52867;DHT22;38739;53.324;6.862;2023-01-29T14:52:59;5.00;99.90
52867;DHT22;38739;53.324;6.862;2023-01-29T14:55:53;5.00;99.90
52867;DHT22;38739;53.324;6.862;2023-01-29T14:58:33;5.00;99.90
52867;DHT22;38739;53.324;6.862;2023-01-29T15:01:35;5.00;99.90
52867;DHT22;38739;53.324;6.862;2023-01-29T15:04:16;5.00;99.90
52867;DHT22;38739;53.324;6.862;2023-01-29T15:12:02;5.00;99.90
52867;DHT22;38739;53.324;6.862;2023-01-29T15:14:35;4.90;99.90
52867;DHT22;38739;53.324;6.862;2023-01-29T15:19:36;5.00;99.90
52867;DHT22;38739;53.324;6.862;2023-01-29T15:22:03;4.90;99.90
52867;DHT22;38739;53.324;6.862;2023-01-29T15:24:29;4.90;99.90
52867;DHT22;38739;53.324;6.862;2023-01-29T15:26:58;4.90;99.90
52867;DHT22;38739;53.324;6.862;2023-01-29T15:29:26;4.90;99.90
52867;DHT22;38739;53.324;6.862;2023-01-29T15:31:55;5.00;99.90
52867;DHT22;38739;53.324;6.862;2023-01-29T15:34:24;4.90;99.90
52867;DHT22;38739;53.324;6.862;2023-01-29T15:36:50;4.90;99.90
52867;DHT22;38739;53.324;6.862;2023-01-29T15:39:20;5.00;99.90
52867;DHT22;38739;53.324;6.862;2023-01-29T15:41:47;5.00;99.90
52867;DHT22;38739;53.324;6.862;2023-01-29T15:44:21;4.90;99.90
52867;DHT22;38739;53.324;6.862;2023-01-29T15:46:48;4.90;99.90
52867;DHT22;38739;53.324;6.862;2023-01-29T15:51:59;4.90;99.90
52867;DHT22;38739;53.324;6.862;2023-01-29T15:54:32;4.90;99.90
52867;DHT22;38739;53.324;6.862;2023-01-29T15:56:59;4.90;99.90
52867;DHT22;38739;53.324;6.862;2023-01-29T15:59:29;4.90;99.90
52867;DHT22;38739;53.324;6.862;2023-01-29T16:01:55;4.90;99.90
52867;DHT22;38739;53.324;6.862;2023-01-29T16:04:25;4.90;99.90
52867;DHT22;38739;53.324;6.862;2023-01-29T16:06:53;4.90;99.90
52867;DHT22;38739;53.324;6.862;2023-01-29T16:09:22;4.90;99.90
52867;DHT22;38739;53.324;6.862;2023-01-29T16:11:49;4.90;99.90
52867;DHT22;38739;53.324;6.862;2023-01-29T16:14:19;4.90;99.90
52867;DHT22;38739;53.324;6.862;2023-01-29T16:16:46;4.90;99.90
52867;DHT22;38739;53.324;6.862;2023-01-29T16:19:21;4.90;99.90
52867;DHT22;38739;53.324;6.862;2023-01-29T16:21:53;4.90;99.90
52867;DHT22;38739;53.324;6.862;2023-01-29T16:24:20;4.90;99.90
52867;DHT22;38739;53.324;6.862;2023-01-29T16:26:49;4.90;99.90
52867;DHT22;38739;53.324;6.862;2023-01-29T16:29:21;5.00;99.90
52867;DHT22;38739;53.324;6.862;2023-01-29T16:31:50;5.00;99.90
52867;DHT22;38739;53.324;6.862;2023-01-29T16:34:27;4.90;99.90
52867;DHT22;38739;53.324;6.862;2023-01-29T16:36:54;5.00;99.90
52867;DHT22;38739;53.324;6.862;2023-01-29T16:39:26;5.00;99.90
52867;DHT22;38739;53.324;6.862;2023-01-29T16:44:44;5.00;99.90
52867;DHT22;38739;53.324;6.862;2023-01-29T16:47:24;5.00;99.90
52867;DHT22;38739;53.324;6.862;2023-01-29T16:53:12;5.00;99.90
52867;DHT22;38739;53.324;6.862;2023-01-29T16:55:44;5.00;99.90
52867;DHT22;38739;53.324;6.862;2023-01-29T16:58:23;5.00;99.90
52867;DHT22;38739;53.324;6.862;2023-01-29T17:00:55;5.00;99.90
52867;DHT22;38739;53.324;6.862;2023-01-29T17:03:24;5.00;99.90
52867;DHT22;38739;53.324;6.862;2023-01-29T17:05:52;5.00;99.90
52867;DHT22;38739;53.324;6.862;2023-01-29T17:08:29;5.00;99.90
52867;DHT22;38739;53.324;6.862;2023-01-29T17:10:57;5.00;99.90
52867;DHT22;38739;53.324;6.862;2023-01-29T17:13:29;5.00;99.90
52867;DHT22;38739;53.324;6.862;2023-01-29T17:16:12;5.00;99.90
52867;DHT22;38739;53.324;6.862;2023-01-29T17:18:38;5.00;99.90
52867;DHT22;38739;53.324;6.862;2023-01-29T17:21:04;5.00;99.90
52867;DHT22;38739;53.324;6.862;2023-01-29T17:23:30;5.00;99.90
52867;DHT22;38739;53.324;6.862;2023-01-29T17:25:56;5.00;99.90
52867;DHT22;38739;53.324;6.862;2023-01-29T17:28:22;5.00;99.90
52867;DHT22;38739;53.324;6.862;2023-01-29T17:30:47;5.00;99.90
52867;DHT22;38739;53.324;6.862;2023-01-29T17:33:16;5.00;99.90
52867;DHT22;38739;53.324;6.862;2023-01-29T17:35:43;5.00;99.90
52867;DHT22;38739;53.324;6.862;2023-01-29T17:38:14;5.00;99.90
52867;DHT22;38739;53.324;6.862;2023-01-29T17:43:12;5.00;99.90
52867;DHT22;38739;53.324;6.862;2023-01-29T17:45:38;5.00;99.90
52867;DHT22;38739;53.324;6.862;2023-01-29T17:48:18;4.90;99.90
52867;DHT22;38739;53.324;6.862;2023-01-29T17:50:44;4.90;99.90
52867;DHT22;38739;53.324;6.862;2023-01-29T17:53:14;4.90;99.90
52867;DHT22;38739;53.324;6.862;2023-01-29T17:55:40;4.90;99.90
52867;DHT22;38739;53.324;6.862;2023-01-29T17:58:20;4.90;99.90
52867;DHT22;38739;53.324;6.862;2023-01-29T18:00:46;4.90;99.90
52867;DHT22;38739;53.324;6.862;2023-01-29T18:03:13;4.90;99.90
52867;DHT22;38739;53.324;6.862;2023-01-29T18:05:42;4.90;99.90
52867;DHT22;38739;53.324;6.862;2023-01-29T18:08:25;4.90;99.90
52867;DHT22;38739;53.324;6.862;2023-01-29T18:11:00;4.90;99.90
52867;DHT22;38739;53.324;6.862;2023-01-29T18:13:32;4.90;99.90
52867;DHT22;38739;53.324;6.862;2023-01-29T18:16:00;4.90;99.90
52867;DHT22;38739;53.324;6.862;2023-01-29T18:18:32;4.90;99.90
52867;DHT22;38739;53.324;6.862;2023-01-29T18:20:57;4.90;99.90
52867;DHT22;38739;53.324;6.862;2023-01-29T18:23:23;4.90;99.90
52867;DHT22;38739;53.324;6.862;2023-01-29T18:25:49;4.90;99.90
52867;DHT22;38739;53.324;6.862;2023-01-29T18:28:16;5.00;99.90
52867;DHT22;38739;53.324;6.862;2023-01-29T18:30:43;4.90;99.90
52867;DHT22;38739;53.324;6.862;2023-01-29T18:33:13;5.00;99.90
52867;DHT22;38739;53.324;6.862;2023-01-29T18:35:38;4.90;99.90
52867;DHT22;38739;53.324;6.862;2023-01-29T18:38:04;5.00;99.90
52867;DHT22;38739;53.324;6.862;2023-01-29T18:40:31;5.00;99.90
52867;DHT22;38739;53.324;6.862;2023-01-29T18:42:57;5.00;99.90
52867;DHT22;38739;53.324;6.862;2023-01-29T18:45:26;5.00;99.90
52867;DHT22;38739;53.324;6.862;2023-01-29T18:47:52;5.00;99.90